Fall River, Wisconsin
Current Conditions -  °F | °C
As of 7:55 AM on Thursday 23 Oct 2014 (Local Time) from KUNU Reporting Station
Haze Haze  
Wind Chill: 32°   Ceiling: Unl
Heat Index: 37°   Visibility: 4mi
Dew Point: 34°   Wind: 6mph
Humidity: 91%   Direction: 140°SE
Pressure: 30.18"   Gusts: NA
Location:  43.38°N, 89.05°W
Report Text: KUNU 231255Z AUTO 14005KT 4SM BR CLR 03/01 A3018 RMK AO2 T00260012
Loading
Personal Weather Stations






























Interactive Weather Map
Tropical Storm Tracking
New forecast layout! Learn more

10-Day Weather Forecast

Advertisements
Track Severe Weather on mobile